sensor_id;sensor_type;location;lat;lon;timestamp;P1;durP1;ratioP1;P2;durP2;ratioP2
19084;SDS011;9675;51.538;6.728;2023-10-08T00:00:31;4.17;;;1.97;;
19084;SDS011;9675;51.538;6.728;2023-10-08T00:03:08;4.07;;;1.93;;
19084;SDS011;9675;51.538;6.728;2023-10-08T00:05:36;8.43;;;2.00;;
19084;SDS011;9675;51.538;6.728;2023-10-08T00:08:04;4.23;;;1.77;;
19084;SDS011;9675;51.538;6.728;2023-10-08T00:10:34;8.57;;;2.73;;
19084;SDS011;9675;51.538;6.728;2023-10-08T00:13:04;5.13;;;1.87;;
19084;SDS011;9675;51.538;6.728;2023-10-08T00:15:33;5.63;;;2.10;;
19084;SDS011;9675;51.538;6.728;2023-10-08T00:18:01;5.30;;;2.00;;
19084;SDS011;9675;51.538;6.728;2023-10-08T00:20:29;5.77;;;2.30;;
19084;SDS011;9675;51.538;6.728;2023-10-08T00:23:08;6.70;;;2.47;;
19084;SDS011;9675;51.538;6.728;2023-10-08T00:25:35;5.27;;;2.00;;
19084;SDS011;9675;51.538;6.728;2023-10-08T00:28:07;7.43;;;2.40;;
19084;SDS011;9675;51.538;6.728;2023-10-08T00:30:39;6.30;;;2.40;;
19084;SDS011;9675;51.538;6.728;2023-10-08T00:33:07;4.67;;;2.30;;
19084;SDS011;9675;51.538;6.728;2023-10-08T00:35:37;4.87;;;1.80;;
19084;SDS011;9675;51.538;6.728;2023-10-08T00:38:06;7.13;;;2.20;;
19084;SDS011;9675;51.538;6.728;2023-10-08T00:40:39;4.40;;;2.13;;
19084;SDS011;9675;51.538;6.728;2023-10-08T00:43:27;4.43;;;2.00;;
19084;SDS011;9675;51.538;6.728;2023-10-08T00:45:56;8.80;;;2.57;;
19084;SDS011;9675;51.538;6.728;2023-10-08T00:48:24;6.60;;;2.70;;
19084;SDS011;9675;51.538;6.728;2023-10-08T00:50:54;5.23;;;2.07;;
19084;SDS011;9675;51.538;6.728;2023-10-08T00:53:33;4.93;;;2.20;;
19084;SDS011;9675;51.538;6.728;2023-10-08T00:56:05;5.67;;;2.07;;
19084;SDS011;9675;51.538;6.728;2023-10-08T00:58:38;5.00;;;2.50;;
19084;SDS011;9675;51.538;6.728;2023-10-08T01:01:11;4.53;;;2.33;;
19084;SDS011;9675;51.538;6.728;2023-10-08T01:03:41;5.70;;;2.03;;
19084;SDS011;9675;51.538;6.728;2023-10-08T01:06:10;6.27;;;2.13;;
19084;SDS011;9675;51.538;6.728;2023-10-08T01:08:40;5.83;;;2.73;;
19084;SDS011;9675;51.538;6.728;2023-10-08T01:11:16;4.80;;;2.07;;
19084;SDS011;9675;51.538;6.728;2023-10-08T01:13:46;5.03;;;2.00;;
19084;SDS011;9675;51.538;6.728;2023-10-08T01:16:14;4.67;;;2.07;;
19084;SDS011;9675;51.538;6.728;2023-10-08T01:18:43;5.00;;;2.20;;
19084;SDS011;9675;51.538;6.728;2023-10-08T01:21:15;5.43;;;2.53;;
19084;SDS011;9675;51.538;6.728;2023-10-08T01:24:00;5.87;;;2.20;;
19084;SDS011;9675;51.538;6.728;2023-10-08T01:26:31;4.50;;;1.70;;
19084;SDS011;9675;51.538;6.728;2023-10-08T01:28:59;3.47;;;2.10;;
19084;SDS011;9675;51.538;6.728;2023-10-08T01:31:28;3.53;;;1.90;;
19084;SDS011;9675;51.538;6.728;2023-10-08T01:33:57;4.63;;;1.63;;
19084;SDS011;9675;51.538;6.728;2023-10-08T01:36:24;8.43;;;2.17;;
19084;SDS011;9675;51.538;6.728;2023-10-08T01:38:53;6.80;;;2.83;;
19084;SDS011;9675;51.538;6.728;2023-10-08T01:41:21;4.87;;;2.40;;
19084;SDS011;9675;51.538;6.728;2023-10-08T01:43:55;7.23;;;2.20;;
19084;SDS011;9675;51.538;6.728;2023-10-08T01:46:24;9.07;;;2.77;;
19084;SDS011;9675;51.538;6.728;2023-10-08T01:48:52;6.57;;;2.90;;
19084;SDS011;9675;51.538;6.728;2023-10-08T01:51:38;9.30;;;2.33;;
19084;SDS011;9675;51.538;6.728;2023-10-08T01:54:11;3.80;;;1.80;;
19084;SDS011;9675;51.538;6.728;2023-10-08T01:56:44;7.73;;;2.40;;
19084;SDS011;9675;51.538;6.728;2023-10-08T01:59:11;7.87;;;2.30;;
19084;SDS011;9675;51.538;6.728;2023-10-08T02:01:41;5.97;;;2.63;;
19084;SDS011;9675;51.538;6.728;2023-10-08T02:04:09;3.87;;;2.23;;
19084;SDS011;9675;51.538;6.728;2023-10-08T02:06:37;7.37;;;2.20;;
19084;SDS011;9675;51.538;6.728;2023-10-08T02:09:05;5.53;;;2.07;;
19084;SDS011;9675;51.538;6.728;2023-10-08T02:11:44;7.77;;;2.13;;
19084;SDS011;9675;51.538;6.728;2023-10-08T02:14:15;6.17;;;2.30;;
19084;SDS011;9675;51.538;6.728;2023-10-08T02:16:42;5.87;;;2.33;;
19084;SDS011;9675;51.538;6.728;2023-10-08T02:19:10;5.97;;;2.57;;
19084;SDS011;9675;51.538;6.728;2023-10-08T02:21:37;8.57;;;2.30;;
19084;SDS011;9675;51.538;6.728;2023-10-08T02:24:07;8.17;;;2.63;;
19084;SDS011;9675;51.538;6.728;2023-10-08T02:26:36;6.83;;;2.93;;
19084;SDS011;9675;51.538;6.728;2023-10-08T02:29:05;9.27;;;2.30;;
19084;SDS011;9675;51.538;6.728;2023-10-08T02:31:35;9.03;;;2.37;;
19084;SDS011;9675;51.538;6.728;2023-10-08T02:34:04;7.20;;;2.27;;
19084;SDS011;9675;51.538;6.728;2023-10-08T02:36:33;7.20;;;2.80;;
19084;SDS011;9675;51.538;6.728;2023-10-08T02:39:02;5.37;;;2.33;;
19084;SDS011;9675;51.538;6.728;2023-10-08T02:41:32;6.83;;;2.93;;
19084;SDS011;9675;51.538;6.728;2023-10-08T02:43:59;13.13;;;2.97;;
19084;SDS011;9675;51.538;6.728;2023-10-08T02:46:31;7.07;;;2.40;;
19084;SDS011;9675;51.538;6.728;2023-10-08T02:48:58;5.43;;;2.10;;
19084;SDS011;9675;51.538;6.728;2023-10-08T02:51:28;6.53;;;2.43;;
19084;SDS011;9675;51.538;6.728;2023-10-08T02:53:55;7.83;;;2.37;;
19084;SDS011;9675;51.538;6.728;2023-10-08T02:56:22;5.87;;;2.40;;
19084;SDS011;9675;51.538;6.728;2023-10-08T02:58:49;10.63;;;2.53;;
19084;SDS011;9675;51.538;6.728;2023-10-08T03:01:16;7.03;;;2.37;;
19084;SDS011;9675;51.538;6.728;2023-10-08T03:03:46;4.53;;;1.87;;
19084;SDS011;9675;51.538;6.728;2023-10-08T03:06:13;8.70;;;2.30;;
19084;SDS011;9675;51.538;6.728;2023-10-08T03:08:43;7.97;;;2.57;;
19084;SDS011;9675;51.538;6.728;2023-10-08T03:11:12;7.07;;;2.60;;
19084;SDS011;9675;51.538;6.728;2023-10-08T03:13:45;9.33;;;2.37;;
19084;SDS011;9675;51.538;6.728;2023-10-08T03:16:16;9.80;;;2.80;;
19084;SDS011;9675;51.538;6.728;2023-10-08T03:18:53;14.17;;;3.27;;
19084;SDS011;9675;51.538;6.728;2023-10-08T03:21:22;10.47;;;2.87;;
19084;SDS011;9675;51.538;6.728;2023-10-08T03:24:13;6.17;;;2.10;;
19084;SDS011;9675;51.538;6.728;2023-10-08T03:26:54;6.43;;;2.43;;
19084;SDS011;9675;51.538;6.728;2023-10-08T03:29:31;10.03;;;2.93;;
19084;SDS011;9675;51.538;6.728;2023-10-08T03:32:05;8.97;;;2.70;;
19084;SDS011;9675;51.538;6.728;2023-10-08T03:34:39;6.77;;;2.73;;
19084;SDS011;9675;51.538;6.728;2023-10-08T03:37:11;8.83;;;2.93;;
19084;SDS011;9675;51.538;6.728;2023-10-08T03:39:45;7.53;;;2.43;;
19084;SDS011;9675;51.538;6.728;2023-10-08T03:42:32;5.63;;;2.40;;
19084;SDS011;9675;51.538;6.728;2023-10-08T03:45:05;5.63;;;2.30;;
19084;SDS011;9675;51.538;6.728;2023-10-08T03:47:37;7.37;;;2.77;;
19084;SDS011;9675;51.538;6.728;2023-10-08T03:50:07;10.33;;;2.83;;
19084;SDS011;9675;51.538;6.728;2023-10-08T03:52:36;5.70;;;2.40;;
19084;SDS011;9675;51.538;6.728;2023-10-08T03:55:04;6.83;;;2.63;;
19084;SDS011;9675;51.538;6.728;2023-10-08T03:57:46;8.33;;;2.50;;
19084;SDS011;9675;51.538;6.728;2023-10-08T04:00:21;8.73;;;2.50;;
19084;SDS011;9675;51.538;6.728;2023-10-08T04:02:56;6.33;;;2.17;;
19084;SDS011;9675;51.538;6.728;2023-10-08T04:05:34;6.03;;;2.60;;
19084;SDS011;9675;51.538;6.728;2023-10-08T04:08:15;9.30;;;2.70;;
19084;SDS011;9675;51.538;6.728;2023-10-08T04:10:49;7.73;;;2.70;;
19084;SDS011;9675;51.538;6.728;2023-10-08T04:13:52;8.03;;;1.87;;
19084;SDS011;9675;51.538;6.728;2023-10-08T04:16:19;7.50;;;2.23;;
19084;SDS011;9675;51.538;6.728;2023-10-08T04:18:46;6.60;;;2.43;;
19084;SDS011;9675;51.538;6.728;2023-10-08T04:21:18;7.10;;;2.60;;
19084;SDS011;9675;51.538;6.728;2023-10-08T04:23:46;4.57;;;2.30;;
19084;SDS011;9675;51.538;6.728;2023-10-08T04:26:17;6.53;;;2.50;;
19084;SDS011;9675;51.538;6.728;2023-10-08T04:28:48;6.73;;;2.33;;
19084;SDS011;9675;51.538;6.728;2023-10-08T04:31:20;5.73;;;2.50;;
19084;SDS011;9675;51.538;6.728;2023-10-08T04:33:50;7.20;;;2.77;;
19084;SDS011;9675;51.538;6.728;2023-10-08T04:36:19;5.13;;;2.13;;
19084;SDS011;9675;51.538;6.728;2023-10-08T04:38:46;6.17;;;2.60;;
19084;SDS011;9675;51.538;6.728;2023-10-08T04:41:14;6.03;;;2.63;;
19084;SDS011;9675;51.538;6.728;2023-10-08T04:43:44;6.37;;;2.53;;
19084;SDS011;9675;51.538;6.728;2023-10-08T04:46:14;10.00;;;2.23;;
19084;SDS011;9675;51.538;6.728;2023-10-08T04:49:05;6.83;;;2.40;;
19084;SDS011;9675;51.538;6.728;2023-10-08T04:51:44;5.73;;;2.37;;
19084;SDS011;9675;51.538;6.728;2023-10-08T04:54:14;5.77;;;2.30;;
19084;SDS011;9675;51.538;6.728;2023-10-08T04:56:42;9.13;;;2.17;;
19084;SDS011;9675;51.538;6.728;2023-10-08T04:59:09;6.37;;;2.17;;
19084;SDS011;9675;51.538;6.728;2023-10-08T05:01:37;7.37;;;2.47;;
19084;SDS011;9675;51.538;6.728;2023-10-08T05:04:13;6.33;;;2.30;;
19084;SDS011;9675;51.538;6.728;2023-10-08T05:06:53;7.47;;;2.47;;
19084;SDS011;9675;51.538;6.728;2023-10-08T05:09:37;7.73;;;2.80;;
19084;SDS011;9675;51.538;6.728;2023-10-08T05:12:11;11.60;;;2.47;;
19084;SDS011;9675;51.538;6.728;2023-10-08T05:14:55;4.53;;;1.93;;
19084;SDS011;9675;51.538;6.728;2023-10-08T05:17:43;4.33;;;2.10;;
19084;SDS011;9675;51.538;6.728;2023-10-08T05:20:22;3.83;;;2.10;;
19084;SDS011;9675;51.538;6.728;2023-10-08T05:23:07;6.43;;;2.73;;
19084;SDS011;9675;51.538;6.728;2023-10-08T05:25:46;7.67;;;2.13;;
19084;SDS011;9675;51.538;6.728;2023-10-08T05:28:34;11.07;;;2.30;;
19084;SDS011;9675;51.538;6.728;2023-10-08T05:31:12;10.70;;;3.00;;
19084;SDS011;9675;51.538;6.728;2023-10-08T05:34:01;6.90;;;3.03;;
19084;SDS011;9675;51.538;6.728;2023-10-08T05:36:43;7.20;;;2.67;;
19084;SDS011;9675;51.538;6.728;2023-10-08T05:39:17;9.17;;;2.90;;
19084;SDS011;9675;51.538;6.728;2023-10-08T05:41:55;6.77;;;2.20;;
19084;SDS011;9675;51.538;6.728;2023-10-08T05:44:38;9.47;;;2.60;;
19084;SDS011;9675;51.538;6.728;2023-10-08T05:47:10;5.33;;;2.40;;
19084;SDS011;9675;51.538;6.728;2023-10-08T05:50:03;5.37;;;2.40;;
19084;SDS011;9675;51.538;6.728;2023-10-08T05:52:46;4.93;;;2.03;;
19084;SDS011;9675;51.538;6.728;2023-10-08T05:55:28;9.00;;;2.77;;
19084;SDS011;9675;51.538;6.728;2023-10-08T05:58:02;8.37;;;2.30;;
19084;SDS011;9675;51.538;6.728;2023-10-08T06:00:50;8.50;;;3.00;;
19084;SDS011;9675;51.538;6.728;2023-10-08T06:03:51;4.50;;;2.03;;
19084;SDS011;9675;51.538;6.728;2023-10-08T06:06:33;8.63;;;3.00;;
19084;SDS011;9675;51.538;6.728;2023-10-08T06:09:03;7.03;;;2.30;;
19084;SDS011;9675;51.538;6.728;2023-10-08T06:11:47;6.93;;;3.00;;
19084;SDS011;9675;51.538;6.728;2023-10-08T06:14:37;5.83;;;2.10;;
19084;SDS011;9675;51.538;6.728;2023-10-08T06:17:32;5.80;;;2.03;;
19084;SDS011;9675;51.538;6.728;2023-10-08T06:20:21;5.07;;;1.80;;
19084;SDS011;9675;51.538;6.728;2023-10-08T06:22:52;4.47;;;1.67;;
19084;SDS011;9675;51.538;6.728;2023-10-08T06:25:24;5.00;;;1.90;;
19084;SDS011;9675;51.538;6.728;2023-10-08T06:27:54;5.93;;;2.17;;
19084;SDS011;9675;51.538;6.728;2023-10-08T06:30:22;6.87;;;2.33;;
19084;SDS011;9675;51.538;6.728;2023-10-08T06:32:54;6.67;;;2.13;;
19084;SDS011;9675;51.538;6.728;2023-10-08T06:35:22;8.27;;;2.30;;
19084;SDS011;9675;51.538;6.728;2023-10-08T06:37:53;8.30;;;2.20;;
19084;SDS011;9675;51.538;6.728;2023-10-08T06:40:24;7.67;;;2.17;;
19084;SDS011;9675;51.538;6.728;2023-10-08T06:43:11;5.73;;;2.73;;
19084;SDS011;9675;51.538;6.728;2023-10-08T06:45:40;6.07;;;2.30;;
19084;SDS011;9675;51.538;6.728;2023-10-08T06:48:08;7.43;;;2.40;;
19084;SDS011;9675;51.538;6.728;2023-10-08T06:50:43;5.07;;;2.30;;
19084;SDS011;9675;51.538;6.728;2023-10-08T06:53:10;5.13;;;2.03;;
19084;SDS011;9675;51.538;6.728;2023-10-08T06:55:39;4.87;;;2.07;;
19084;SDS011;9675;51.538;6.728;2023-10-08T06:58:07;7.23;;;2.17;;
19084;SDS011;9675;51.538;6.728;2023-10-08T07:00:36;4.63;;;2.30;;
19084;SDS011;9675;51.538;6.728;2023-10-08T07:03:05;4.43;;;1.97;;
19084;SDS011;9675;51.538;6.728;2023-10-08T07:05:35;5.90;;;1.97;;
19084;SDS011;9675;51.538;6.728;2023-10-08T07:08:06;7.23;;;2.00;;
19084;SDS011;9675;51.538;6.728;2023-10-08T07:10:34;7.60;;;2.53;;
19084;SDS011;9675;51.538;6.728;2023-10-08T07:13:02;8.83;;;2.53;;
19084;SDS011;9675;51.538;6.728;2023-10-08T07:15:33;7.40;;;2.53;;
19084;SDS011;9675;51.538;6.728;2023-10-08T07:18:05;7.23;;;2.60;;
19084;SDS011;9675;51.538;6.728;2023-10-08T07:20:38;9.27;;;2.93;;
19084;SDS011;9675;51.538;6.728;2023-10-08T07:23:07;8.93;;;2.90;;
19084;SDS011;9675;51.538;6.728;2023-10-08T07:25:45;5.13;;;2.20;;
19084;SDS011;9675;51.538;6.728;2023-10-08T07:28:17;5.23;;;2.23;;
19084;SDS011;9675;51.538;6.728;2023-10-08T07:30:47;9.70;;;2.73;;
19084;SDS011;9675;51.538;6.728;2023-10-08T07:33:15;5.47;;;2.10;;
19084;SDS011;9675;51.538;6.728;2023-10-08T07:35:45;7.47;;;2.20;;
19084;SDS011;9675;51.538;6.728;2023-10-08T07:38:22;6.50;;;2.13;;
19084;SDS011;9675;51.538;6.728;2023-10-08T07:40:53;5.00;;;2.13;;
19084;SDS011;9675;51.538;6.728;2023-10-08T07:43:22;6.97;;;2.30;;
19084;SDS011;9675;51.538;6.728;2023-10-08T07:45:51;4.03;;;1.93;;
19084;SDS011;9675;51.538;6.728;2023-10-08T07:48:19;7.43;;;2.63;;
19084;SDS011;9675;51.538;6.728;2023-10-08T07:50:54;7.83;;;2.70;;
19084;SDS011;9675;51.538;6.728;2023-10-08T07:53:23;8.13;;;2.87;;
19084;SDS011;9675;51.538;6.728;2023-10-08T07:56:02;6.50;;;2.43;;
19084;SDS011;9675;51.538;6.728;2023-10-08T07:58:33;5.67;;;2.00;;
19084;SDS011;9675;51.538;6.728;2023-10-08T08:01:04;7.43;;;2.63;;
19084;SDS011;9675;51.538;6.728;2023-10-08T08:03:32;5.10;;;2.27;;
19084;SDS011;9675;51.538;6.728;2023-10-08T08:06:01;8.50;;;3.23;;
19084;SDS011;9675;51.538;6.728;2023-10-08T08:08:31;6.93;;;2.67;;
19084;SDS011;9675;51.538;6.728;2023-10-08T08:11:00;8.90;;;2.50;;
19084;SDS011;9675;51.538;6.728;2023-10-08T08:13:31;8.10;;;2.80;;
19084;SDS011;9675;51.538;6.728;2023-10-08T08:16:00;5.70;;;2.70;;
19084;SDS011;9675;51.538;6.728;2023-10-08T08:18:43;3.40;;;1.80;;
19084;SDS011;9675;51.538;6.728;2023-10-08T08:21:10;6.47;;;2.47;;
19084;SDS011;9675;51.538;6.728;2023-10-08T08:23:40;3.70;;;2.30;;
19084;SDS011;9675;51.538;6.728;2023-10-08T08:26:13;3.20;;;1.80;;
19084;SDS011;9675;51.538;6.728;2023-10-08T08:28:52;10.70;;;3.17;;
19084;SDS011;9675;51.538;6.728;2023-10-08T08:31:22;10.53;;;3.80;;
19084;SDS011;9675;51.538;6.728;2023-10-08T08:33:51;7.83;;;2.47;;
19084;SDS011;9675;51.538;6.728;2023-10-08T08:36:19;8.60;;;3.13;;
19084;SDS011;9675;51.538;6.728;2023-10-08T08:38:47;11.17;;;3.73;;
19084;SDS011;9675;51.538;6.728;2023-10-08T08:41:15;6.73;;;2.83;;
19084;SDS011;9675;51.538;6.728;2023-10-08T08:43:44;8.03;;;3.10;;
19084;SDS011;9675;51.538;6.728;2023-10-08T08:46:15;6.63;;;2.70;;
19084;SDS011;9675;51.538;6.728;2023-10-08T08:48:42;10.93;;;3.60;;
19084;SDS011;9675;51.538;6.728;2023-10-08T08:51:14;8.90;;;2.20;;
19084;SDS011;9675;51.538;6.728;2023-10-08T08:53:41;10.10;;;2.93;;
19084;SDS011;9675;51.538;6.728;2023-10-08T08:56:09;6.13;;;2.53;;
19084;SDS011;9675;51.538;6.728;2023-10-08T08:58:37;6.60;;;2.20;;
19084;SDS011;9675;51.538;6.728;2023-10-08T09:01:06;8.00;;;2.57;;
19084;SDS011;9675;51.538;6.728;2023-10-08T09:03:38;10.20;;;3.03;;
19084;SDS011;9675;51.538;6.728;2023-10-08T09:06:05;4.47;;;2.40;;
19084;SDS011;9675;51.538;6.728;2023-10-08T09:08:36;6.10;;;2.53;;
19084;SDS011;9675;51.538;6.728;2023-10-08T09:11:07;7.30;;;4.03;;
19084;SDS011;9675;51.538;6.728;2023-10-08T09:13:35;5.33;;;2.83;;
19084;SDS011;9675;51.538;6.728;2023-10-08T09:16:03;7.00;;;2.70;;
19084;SDS011;9675;51.538;6.728;2023-10-08T09:18:37;11.83;;;4.03;;
19084;SDS011;9675;51.538;6.728;2023-10-08T09:21:08;7.13;;;3.90;;
19084;SDS011;9675;51.538;6.728;2023-10-08T09:23:41;6.90;;;3.37;;
19084;SDS011;9675;51.538;6.728;2023-10-08T09:26:12;8.63;;;3.97;;
19084;SDS011;9675;51.538;6.728;2023-10-08T09:28:44;9.17;;;4.50;;
19084;SDS011;9675;51.538;6.728;2023-10-08T09:31:13;6.23;;;2.93;;
19084;SDS011;9675;51.538;6.728;2023-10-08T09:33:42;10.10;;;4.63;;
19084;SDS011;9675;51.538;6.728;2023-10-08T09:36:19;16.53;;;5.07;;
19084;SDS011;9675;51.538;6.728;2023-10-08T09:38:51;12.43;;;4.67;;
19084;SDS011;9675;51.538;6.728;2023-10-08T09:41:19;14.97;;;5.23;;
19084;SDS011;9675;51.538;6.728;2023-10-08T09:43:46;15.27;;;7.20;;
19084;SDS011;9675;51.538;6.728;2023-10-08T09:46:15;9.93;;;4.93;;
19084;SDS011;9675;51.538;6.728;2023-10-08T09:48:48;17.17;;;7.63;;
19084;SDS011;9675;51.538;6.728;2023-10-08T09:51:18;17.40;;;7.33;;
19084;SDS011;9675;51.538;6.728;2023-10-08T09:54:00;19.20;;;6.63;;
19084;SDS011;9675;51.538;6.728;2023-10-08T09:56:35;16.57;;;7.00;;
19084;SDS011;9675;51.538;6.728;2023-10-08T09:59:05;9.23;;;4.60;;
19084;SDS011;9675;51.538;6.728;2023-10-08T10:01:34;14.93;;;5.43;;
19084;SDS011;9675;51.538;6.728;2023-10-08T10:04:05;9.47;;;4.17;;
19084;SDS011;9675;51.538;6.728;2023-10-08T10:06:35;9.50;;;4.00;;
19084;SDS011;9675;51.538;6.728;2023-10-08T10:09:04;5.27;;;2.70;;
19084;SDS011;9675;51.538;6.728;2023-10-08T10:11:35;11.53;;;8.00;;
19084;SDS011;9675;51.538;6.728;2023-10-08T10:14:02;7.47;;;4.63;;
19084;SDS011;9675;51.538;6.728;2023-10-08T10:16:31;4.40;;;2.10;;
19084;SDS011;9675;51.538;6.728;2023-10-08T10:19:04;4.87;;;2.93;;
19084;SDS011;9675;51.538;6.728;2023-10-08T10:21:32;3.80;;;1.93;;
19084;SDS011;9675;51.538;6.728;2023-10-08T10:23:59;6.43;;;2.37;;
19084;SDS011;9675;51.538;6.728;2023-10-08T10:26:32;6.67;;;2.40;;
19084;SDS011;9675;51.538;6.728;2023-10-08T10:29:18;6.87;;;2.13;;
19084;SDS011;9675;51.538;6.728;2023-10-08T10:31:47;4.80;;;1.53;;
19084;SDS011;9675;51.538;6.728;2023-10-08T10:34:18;2.93;;;1.37;;
19084;SDS011;9675;51.538;6.728;2023-10-08T10:36:50;10.43;;;2.30;;
19084;SDS011;9675;51.538;6.728;2023-10-08T10:39:23;4.73;;;1.63;;
19084;SDS011;9675;51.538;6.728;2023-10-08T10:41:58;5.50;;;1.80;;
19084;SDS011;9675;51.538;6.728;2023-10-08T10:44:28;4.00;;;1.73;;
19084;SDS011;9675;51.538;6.728;2023-10-08T10:46:57;5.53;;;1.90;;
19084;SDS011;9675;51.538;6.728;2023-10-08T10:49:43;3.53;;;1.77;;
19084;SDS011;9675;51.538;6.728;2023-10-08T10:52:17;5.03;;;1.93;;
19084;SDS011;9675;51.538;6.728;2023-10-08T10:54:57;4.33;;;1.90;;
19084;SDS011;9675;51.538;6.728;2023-10-08T10:57:46;5.60;;;2.17;;
19084;SDS011;9675;51.538;6.728;2023-10-08T11:00:27;3.03;;;1.63;;
19084;SDS011;9675;51.538;6.728;2023-10-08T11:03:12;11.90;;;3.47;;
19084;SDS011;9675;51.538;6.728;2023-10-08T11:05:43;6.37;;;3.20;;
19084;SDS011;9675;51.538;6.728;2023-10-08T11:08:16;10.20;;;3.70;;
19084;SDS011;9675;51.538;6.728;2023-10-08T11:10:46;7.10;;;3.07;;
19084;SDS011;9675;51.538;6.728;2023-10-08T11:13:17;9.40;;;3.57;;
19084;SDS011;9675;51.538;6.728;2023-10-08T11:15:46;8.20;;;3.53;;
19084;SDS011;9675;51.538;6.728;2023-10-08T11:18:19;12.03;;;4.73;;
19084;SDS011;9675;51.538;6.728;2023-10-08T11:20:50;10.47;;;4.13;;
19084;SDS011;9675;51.538;6.728;2023-10-08T11:23:32;11.30;;;4.33;;
19084;SDS011;9675;51.538;6.728;2023-10-08T11:26:02;8.10;;;3.73;;
19084;SDS011;9675;51.538;6.728;2023-10-08T11:28:33;9.07;;;3.73;;
19084;SDS011;9675;51.538;6.728;2023-10-08T11:31:07;10.97;;;3.70;;
19084;SDS011;9675;51.538;6.728;2023-10-08T11:33:37;11.33;;;3.80;;
19084;SDS011;9675;51.538;6.728;2023-10-08T11:36:07;7.27;;;3.37;;
19084;SDS011;9675;51.538;6.728;2023-10-08T11:38:43;10.30;;;3.30;;
19084;SDS011;9675;51.538;6.728;2023-10-08T11:41:15;8.03;;;3.57;;
19084;SDS011;9675;51.538;6.728;2023-10-08T11:43:51;7.60;;;3.40;;
19084;SDS011;9675;51.538;6.728;2023-10-08T11:46:22;5.80;;;2.90;;
19084;SDS011;9675;51.538;6.728;2023-10-08T11:48:57;6.47;;;3.30;;
19084;SDS011;9675;51.538;6.728;2023-10-08T11:51:29;5.47;;;2.27;;
19084;SDS011;9675;51.538;6.728;2023-10-08T11:53:58;7.90;;;3.37;;
19084;SDS011;9675;51.538;6.728;2023-10-08T11:56:26;7.67;;;2.50;;
19084;SDS011;9675;51.538;6.728;2023-10-08T11:58:56;4.50;;;2.60;;
19084;SDS011;9675;51.538;6.728;2023-10-08T12:01:23;5.60;;;2.30;;
19084;SDS011;9675;51.538;6.728;2023-10-08T12:03:52;8.80;;;2.97;;
19084;SDS011;9675;51.538;6.728;2023-10-08T12:06:24;6.97;;;2.83;;
19084;SDS011;9675;51.538;6.728;2023-10-08T12:08:54;6.80;;;2.97;;
19084;SDS011;9675;51.538;6.728;2023-10-08T12:11:23;6.13;;;2.37;;
19084;SDS011;9675;51.538;6.728;2023-10-08T12:13:57;6.50;;;2.57;;
19084;SDS011;9675;51.538;6.728;2023-10-08T12:16:25;2.97;;;2.03;;
19084;SDS011;9675;51.538;6.728;2023-10-08T12:18:55;4.63;;;2.17;;
19084;SDS011;9675;51.538;6.728;2023-10-08T12:21:24;4.23;;;2.43;;
19084;SDS011;9675;51.538;6.728;2023-10-08T12:23:54;7.73;;;3.00;;
19084;SDS011;9675;51.538;6.728;2023-10-08T12:26:22;5.83;;;2.73;;
19084;SDS011;9675;51.538;6.728;2023-10-08T12:28:50;3.27;;;1.93;;
19084;SDS011;9675;51.538;6.728;2023-10-08T12:31:20;4.67;;;2.23;;
19084;SDS011;9675;51.538;6.728;2023-10-08T12:33:49;3.50;;;2.30;;
19084;SDS011;9675;51.538;6.728;2023-10-08T12:36:18;5.60;;;2.43;;
19084;SDS011;9675;51.538;6.728;2023-10-08T12:38:48;4.67;;;2.33;;
19084;SDS011;9675;51.538;6.728;2023-10-08T12:41:22;6.87;;;2.63;;
19084;SDS011;9675;51.538;6.728;2023-10-08T12:43:50;5.70;;;2.27;;
19084;SDS011;9675;51.538;6.728;2023-10-08T12:46:20;4.80;;;2.53;;
19084;SDS011;9675;51.538;6.728;2023-10-08T12:48:50;7.03;;;3.47;;
19084;SDS011;9675;51.538;6.728;2023-10-08T12:51:19;12.87;;;3.97;;
19084;SDS011;9675;51.538;6.728;2023-10-08T12:53:49;7.87;;;3.30;;
19084;SDS011;9675;51.538;6.728;2023-10-08T12:56:23;5.70;;;2.60;;
19084;SDS011;9675;51.538;6.728;2023-10-08T12:58:57;6.10;;;2.67;;
19084;SDS011;9675;51.538;6.728;2023-10-08T13:01:26;8.83;;;2.57;;
19084;SDS011;9675;51.538;6.728;2023-10-08T13:03:54;4.87;;;2.43;;
19084;SDS011;9675;51.538;6.728;2023-10-08T13:06:25;4.93;;;2.53;;
19084;SDS011;9675;51.538;6.728;2023-10-08T13:08:54;6.90;;;2.37;;
19084;SDS011;9675;51.538;6.728;2023-10-08T13:11:23;4.20;;;2.10;;
19084;SDS011;9675;51.538;6.728;2023-10-08T13:13:55;5.97;;;1.90;;
19084;SDS011;9675;51.538;6.728;2023-10-08T13:16:23;8.27;;;1.90;;
19084;SDS011;9675;51.538;6.728;2023-10-08T13:18:56;5.00;;;1.73;;
19084;SDS011;9675;51.538;6.728;2023-10-08T13:21:24;3.80;;;1.43;;
19084;SDS011;9675;51.538;6.728;2023-10-08T13:23:52;3.90;;;1.40;;
19084;SDS011;9675;51.538;6.728;2023-10-08T13:26:22;3.03;;;1.50;;
19084;SDS011;9675;51.538;6.728;2023-10-08T13:28:50;1.60;;;1.10;;
19084;SDS011;9675;51.538;6.728;2023-10-08T13:31:17;2.87;;;1.47;;
19084;SDS011;9675;51.538;6.728;2023-10-08T13:33:46;1.50;;;0.93;;
19084;SDS011;9675;51.538;6.728;2023-10-08T13:36:17;5.17;;;1.37;;
19084;SDS011;9675;51.538;6.728;2023-10-08T13:38:44;4.00;;;1.50;;
19084;SDS011;9675;51.538;6.728;2023-10-08T13:41:12;1.93;;;1.10;;
19084;SDS011;9675;51.538;6.728;2023-10-08T13:43:43;4.27;;;1.30;;
19084;SDS011;9675;51.538;6.728;2023-10-08T13:46:12;4.07;;;1.87;;
19084;SDS011;9675;51.538;6.728;2023-10-08T13:48:42;10.47;;;1.73;;
19084;SDS011;9675;51.538;6.728;2023-10-08T13:51:14;2.50;;;1.40;;
19084;SDS011;9675;51.538;6.728;2023-10-08T13:53:48;4.40;;;1.33;;
19084;SDS011;9675;51.538;6.728;2023-10-08T13:56:18;2.10;;;0.63;;
19084;SDS011;9675;51.538;6.728;2023-10-08T13:58:50;4.03;;;1.30;;
19084;SDS011;9675;51.538;6.728;2023-10-08T14:01:21;5.30;;;1.83;;
19084;SDS011;9675;51.538;6.728;2023-10-08T14:03:50;4.23;;;1.60;;
19084;SDS011;9675;51.538;6.728;2023-10-08T14:06:20;4.67;;;1.77;;
19084;SDS011;9675;51.538;6.728;2023-10-08T14:08:48;6.40;;;1.43;;
19084;SDS011;9675;51.538;6.728;2023-10-08T14:11:18;2.93;;;1.20;;
19084;SDS011;9675;51.538;6.728;2023-10-08T14:13:48;3.40;;;1.40;;
19084;SDS011;9675;51.538;6.728;2023-10-08T14:16:17;3.93;;;1.17;;
19084;SDS011;9675;51.538;6.728;2023-10-08T14:18:48;3.87;;;1.03;;
19084;SDS011;9675;51.538;6.728;2023-10-08T14:21:20;3.37;;;1.17;;
19084;SDS011;9675;51.538;6.728;2023-10-08T14:23:49;3.10;;;1.00;;
19084;SDS011;9675;51.538;6.728;2023-10-08T14:26:17;2.90;;;0.90;;
19084;SDS011;9675;51.538;6.728;2023-10-08T14:28:47;4.17;;;1.40;;
19084;SDS011;9675;51.538;6.728;2023-10-08T14:31:18;4.30;;;1.63;;
19084;SDS011;9675;51.538;6.728;2023-10-08T14:33:50;2.17;;;1.10;;
19084;SDS011;9675;51.538;6.728;2023-10-08T14:36:32;2.33;;;1.27;;
19084;SDS011;9675;51.538;6.728;2023-10-08T14:39:16;4.37;;;1.67;;
19084;SDS011;9675;51.538;6.728;2023-10-08T14:42:01;3.27;;;1.10;;
19084;SDS011;9675;51.538;6.728;2023-10-08T14:44:45;4.80;;;1.03;;
19084;SDS011;9675;51.538;6.728;2023-10-08T14:47:14;3.63;;;0.90;;
19084;SDS011;9675;51.538;6.728;2023-10-08T14:49:41;3.33;;;1.00;;
19084;SDS011;9675;51.538;6.728;2023-10-08T14:52:12;2.93;;;0.80;;
19084;SDS011;9675;51.538;6.728;2023-10-08T14:54:39;4.27;;;1.00;;
19084;SDS011;9675;51.538;6.728;2023-10-08T14:57:08;2.20;;;0.90;;
19084;SDS011;9675;51.538;6.728;2023-10-08T14:59:37;4.87;;;1.20;;
19084;SDS011;9675;51.538;6.728;2023-10-08T15:02:05;3.20;;;1.70;;
19084;SDS011;9675;51.538;6.728;2023-10-08T15:04:35;3.70;;;1.40;;
19084;SDS011;9675;51.538;6.728;2023-10-08T15:07:04;2.00;;;0.90;;
19084;SDS011;9675;51.538;6.728;2023-10-08T15:09:35;0.93;;;0.60;;
19084;SDS011;9675;51.538;6.728;2023-10-08T15:12:04;4.70;;;1.00;;
19084;SDS011;9675;51.538;6.728;2023-10-08T15:14:33;4.93;;;0.90;;
19084;SDS011;9675;51.538;6.728;2023-10-08T15:17:00;1.93;;;0.80;;
19084;SDS011;9675;51.538;6.728;2023-10-08T15:19:27;2.97;;;1.17;;
19084;SDS011;9675;51.538;6.728;2023-10-08T15:21:54;3.67;;;0.80;;
19084;SDS011;9675;51.538;6.728;2023-10-08T15:24:23;3.33;;;0.90;;
19084;SDS011;9675;51.538;6.728;2023-10-08T15:26:53;5.13;;;0.80;;
19084;SDS011;9675;51.538;6.728;2023-10-08T15:29:21;2.13;;;0.70;;